createdAt,value
2019-01-20T00:02:29.464Z,-2.02
2019-01-20T00:07:24.089Z,-2.06
2019-01-20T00:12:18.713Z,-1.93
2019-01-20T00:17:13.309Z,-1.97
2019-01-20T00:22:07.999Z,-1.98
2019-01-20T00:27:02.652Z,-2.05
2019-01-20T00:31:57.264Z,-2.00
2019-01-20T00:36:51.891Z,-1.99
2019-01-20T00:41:46.528Z,-1.96
2019-01-20T00:46:41.151Z,-1.95
2019-01-20T00:51:35.855Z,-1.86
2019-01-20T00:56:30.442Z,-1.78
2019-01-20T01:01:25.129Z,-1.69
2019-01-20T01:06:20.855Z,-1.57
2019-01-20T01:11:15.484Z,-1.61
2019-01-20T01:16:10.151Z,-1.53
2019-01-20T01:21:04.937Z,-1.48
2019-01-20T01:25:59.635Z,-1.40
2019-01-20T01:30:54.262Z,-1.24
2019-01-20T01:35:49.040Z,-1.04
2019-01-20T01:40:43.644Z,-1.06
2019-01-20T01:45:38.269Z,-1.06
2019-01-20T01:50:32.909Z,-1.02
2019-01-20T01:55:27.570Z,-1.02
2019-01-20T02:00:23.787Z,-1.13
2019-01-20T02:05:19.825Z,-1.13
2019-01-20T02:10:18.298Z,-0.93
2019-01-20T02:15:16.392Z,-0.82
2019-01-20T02:20:15.468Z,-0.75
2019-01-20T02:25:10.506Z,-0.62
2019-01-20T02:30:14.632Z,-0.66
2019-01-20T02:35:09.461Z,-0.71
2019-01-20T02:40:07.221Z,-0.70
2019-01-20T02:45:01.844Z,-0.57
2019-01-20T02:49:56.483Z,-0.64
2019-01-20T02:54:51.103Z,-0.66
2019-01-20T02:59:45.729Z,-0.57
2019-01-20T03:04:40.330Z,-0.56
2019-01-20T03:09:34.958Z,-0.40
2019-01-20T03:14:29.594Z,-0.35
2019-01-20T03:19:24.312Z,-0.33
2019-01-20T03:24:18.982Z,-0.33
2019-01-20T03:29:13.748Z,-0.44
2019-01-20T03:34:08.358Z,-0.32
2019-01-20T03:39:03.196Z,-0.44
2019-01-20T03:43:57.821Z,-0.38
2019-01-20T03:48:52.488Z,-0.41
2019-01-20T03:53:47.139Z,-0.47
2019-01-20T03:58:41.815Z,-0.46
2019-01-20T04:03:36.436Z,-0.36
2019-01-20T04:08:31.021Z,-0.36
2019-01-20T04:13:25.654Z,-0.44
2019-01-20T04:18:20.258Z,-0.47
2019-01-20T04:23:14.892Z,-0.40
2019-01-20T04:28:09.492Z,-0.39
2019-01-20T04:33:04.356Z,-0.45
2019-01-20T04:37:59.024Z,-0.44
2019-01-20T04:42:53.656Z,-0.43
2019-01-20T04:47:48.463Z,-0.44
2019-01-20T04:52:43.149Z,-0.41
2019-01-20T04:57:38.022Z,-0.38
2019-01-20T05:02:32.654Z,-0.45
2019-01-20T05:07:27.274Z,-0.50
2019-01-20T05:12:21.969Z,-0.60
2019-01-20T05:17:16.592Z,-0.61
2019-01-20T05:22:11.205Z,-0.60
2019-01-20T05:27:05.908Z,-0.55
2019-01-20T05:32:00.553Z,-0.62
2019-01-20T05:36:55.145Z,-0.55
2019-01-20T05:41:49.774Z,-0.66
2019-01-20T05:46:44.387Z,-0.67
2019-01-20T05:51:39.067Z,-0.80
2019-01-20T05:56:33.692Z,-0.74
2019-01-20T06:01:28.387Z,-0.61
2019-01-20T06:06:23.006Z,-0.55
2019-01-20T06:11:17.693Z,-0.51
2019-01-20T06:16:12.327Z,-0.50
2019-01-20T06:21:06.916Z,-0.57
2019-01-20T06:26:01.540Z,-0.62
2019-01-20T06:30:56.176Z,-0.60
2019-01-20T06:35:50.881Z,-0.57
2019-01-20T06:40:45.483Z,-0.51
2019-01-20T06:45:40.122Z,-0.55
2019-01-20T06:50:34.837Z,-0.58
2019-01-20T06:55:29.538Z,-0.47
2019-01-20T07:00:24.975Z,-0.47
2019-01-20T07:05:19.941Z,-0.34
2019-01-20T07:10:17.489Z,-0.33
2019-01-20T07:15:16.371Z,-0.30
2019-01-20T07:20:13.866Z,-0.33
2019-01-20T07:25:09.789Z,-0.28
2019-01-20T07:30:10.491Z,-0.25
2019-01-20T07:35:07.710Z,-0.33
2019-01-20T07:40:02.347Z,-0.35
2019-01-20T07:44:56.970Z,-0.21
2019-01-20T07:49:51.591Z,-0.27
2019-01-20T07:54:46.186Z,-0.14
2019-01-20T07:59:40.804Z,0.03
2019-01-20T08:04:35.435Z,0.00
2019-01-20T08:09:30.068Z,-0.02
2019-01-20T08:14:24.671Z,0.06
2019-01-20T08:19:19.439Z,0.22
2019-01-20T08:24:14.148Z,0.43
2019-01-20T08:29:08.757Z,0.43
2019-01-20T08:34:03.383Z,0.55
2019-01-20T08:38:57.989Z,0.70
2019-01-20T08:43:52.618Z,0.80
2019-01-20T08:48:47.284Z,0.85
2019-01-20T08:53:41.895Z,0.98
2019-01-20T08:58:36.504Z,1.11
2019-01-20T09:03:31.106Z,1.13
2019-01-20T09:08:25.858Z,0.93
2019-01-20T09:13:20.739Z,1.03
2019-01-20T09:18:15.494Z,1.06
2019-01-20T09:23:10.108Z,1.21
2019-01-20T09:28:05.079Z,1.40
2019-01-20T09:32:59.767Z,1.42
2019-01-20T09:37:54.389Z,1.63
2019-01-20T09:42:48.997Z,1.55
2019-01-20T09:47:43.602Z,1.81
2019-01-20T09:52:38.210Z,2.11
2019-01-20T09:57:32.889Z,2.27
2019-01-20T10:02:27.561Z,2.37
2019-01-20T10:07:22.257Z,1.95
2019-01-20T10:12:16.872Z,2.09
2019-01-20T10:17:11.531Z,2.29
2019-01-20T10:22:06.388Z,2.40
2019-01-20T10:27:00.997Z,2.72
2019-01-20T10:31:55.636Z,2.75
2019-01-20T10:36:50.242Z,2.95
2019-01-20T10:41:44.928Z,3.26
2019-01-20T10:46:39.542Z,3.30
2019-01-20T10:51:34.159Z,3.19
2019-01-20T10:56:28.753Z,3.07
2019-01-20T11:01:23.359Z,3.20
2019-01-20T11:06:17.964Z,3.16
2019-01-20T11:11:12.641Z,3.10
2019-01-20T11:16:07.339Z,3.21
2019-01-20T11:21:02.008Z,3.19
2019-01-20T11:25:56.632Z,3.45
2019-01-20T11:30:51.380Z,3.68
2019-01-20T11:35:45.999Z,3.79
2019-01-20T11:40:40.619Z,3.87
2019-01-20T11:45:35.445Z,4.14
2019-01-20T11:50:30.468Z,4.23
2019-01-20T11:55:25.760Z,4.23
2019-01-20T12:00:32.882Z,4.23
2019-01-20T12:05:27.787Z,4.15
2019-01-20T12:10:22.737Z,4.21
2019-01-20T12:15:17.956Z,4.41
2019-01-20T12:20:15.678Z,4.45
2019-01-20T12:25:16.757Z,4.42
2019-01-20T12:30:24.880Z,4.35
2019-01-20T12:35:19.625Z,4.38
2019-01-20T12:40:27.836Z,4.43
2019-01-20T12:45:22.462Z,4.42
2019-01-20T12:50:19.120Z,4.25
2019-01-20T12:55:16.833Z,4.10
2019-01-20T13:00:18.595Z,4.03
2019-01-20T13:05:13.807Z,3.94
2019-01-20T13:10:12.750Z,3.99
2019-01-20T13:15:14.262Z,3.66
2019-01-20T13:20:21.552Z,3.26
2019-01-20T13:25:20.351Z,3.02
2019-01-20T13:30:18.775Z,2.87
2019-01-20T13:35:14.288Z,2.76
2019-01-20T13:40:22.263Z,2.68
2019-01-20T13:45:16.983Z,2.73
2019-01-20T13:50:19.069Z,2.78
2019-01-20T13:55:16.208Z,3.00
2019-01-20T14:00:23.851Z,2.89
2019-01-20T14:05:18.508Z,3.06
2019-01-20T14:10:25.125Z,3.07
2019-01-20T14:15:19.725Z,3.29
2019-01-20T14:20:23.375Z,3.20
2019-01-20T14:25:21.768Z,3.41
2019-01-20T14:30:23.488Z,3.31
2019-01-20T14:35:18.284Z,3.11
2019-01-20T14:40:16.706Z,3.15
2019-01-20T14:45:15.536Z,2.86
2019-01-20T14:50:23.247Z,2.95
2019-01-20T14:55:18.114Z,2.99
2019-01-20T15:00:26.074Z,2.89
2019-01-20T15:05:20.748Z,2.65
2019-01-20T15:10:17.065Z,2.47
2019-01-20T15:15:25.024Z,2.45
2019-01-20T15:20:19.844Z,2.46
2019-01-20T15:25:21.253Z,2.45
2019-01-20T15:30:33.647Z,2.39
2019-01-20T15:35:28.391Z,2.23
2019-01-20T15:40:25.811Z,2.11
2019-01-20T15:45:23.147Z,2.10
2019-01-20T15:50:24.912Z,2.03
2019-01-20T15:55:19.605Z,2.12
2019-01-20T16:00:18.468Z,2.21
2019-01-20T16:05:13.503Z,2.22
2019-01-20T16:10:12.454Z,2.15
2019-01-20T16:15:11.643Z,1.92
2019-01-20T16:20:10.849Z,1.92
2019-01-20T16:25:12.745Z,1.98
2019-01-20T16:30:11.971Z,1.97
2019-01-20T16:35:11.177Z,2.03
2019-01-20T16:40:12.971Z,2.15
2019-01-20T16:45:13.074Z,2.20
2019-01-20T16:50:15.439Z,2.16
2019-01-20T16:55:12.867Z,2.22
2019-01-20T17:00:28.944Z,2.13
2019-01-20T17:05:26.887Z,2.13
2019-01-20T17:10:26.290Z,2.02
2019-01-20T17:15:31.139Z,2.03
2019-01-20T17:20:25.903Z,2.02
2019-01-20T17:25:20.598Z,1.96
2019-01-20T17:30:21.785Z,1.88
2019-01-20T17:35:16.923Z,1.81
2019-01-20T17:40:16.488Z,1.76
2019-01-20T17:45:16.194Z,1.74
2019-01-20T17:50:15.624Z,1.74
2019-01-20T17:55:10.955Z,1.75
2019-01-20T18:00:10.166Z,1.70
2019-01-20T18:05:08.285Z,1.59
2019-01-20T18:10:03.463Z,1.53
2019-01-20T18:14:58.092Z,1.53
2019-01-20T18:19:52.725Z,1.50
2019-01-20T18:24:47.320Z,1.48
2019-01-20T18:29:41.946Z,1.47
2019-01-20T18:34:36.580Z,1.50
2019-01-20T18:39:31.190Z,1.44
2019-01-20T18:44:25.802Z,1.44
2019-01-20T18:49:20.488Z,1.48
2019-01-20T18:54:15.115Z,1.54
2019-01-20T18:59:09.710Z,1.50
2019-01-20T19:04:04.395Z,1.43
2019-01-20T19:08:59.056Z,1.43
2019-01-20T19:13:53.684Z,1.54
2019-01-20T19:18:48.297Z,1.65
2019-01-20T19:23:42.905Z,1.67
2019-01-20T19:28:37.523Z,1.47
2019-01-20T19:33:32.128Z,1.38
2019-01-20T19:38:26.733Z,1.35
2019-01-20T19:43:21.360Z,1.30
2019-01-20T19:48:20.191Z,1.30
2019-01-20T19:53:12.286Z,1.26
2019-01-20T19:58:06.966Z,1.26
2019-01-20T20:03:01.644Z,1.35
2019-01-20T20:07:57.775Z,1.17
2019-01-20T20:12:52.839Z,1.12
2019-01-20T20:17:47.474Z,1.17
2019-01-20T20:22:42.149Z,1.18
2019-01-20T20:27:36.906Z,1.19
2019-01-20T20:32:31.597Z,1.04
2019-01-20T20:37:26.265Z,1.11
2019-01-20T20:42:20.869Z,1.15
2019-01-20T20:47:15.463Z,1.02
2019-01-20T20:52:10.220Z,0.95
2019-01-20T20:57:04.997Z,0.92
2019-01-20T21:01:59.679Z,0.92
2019-01-20T21:06:54.295Z,0.98
2019-01-20T21:11:48.927Z,1.14
2019-01-20T21:16:43.554Z,1.17
2019-01-20T21:21:38.249Z,1.39
2019-01-20T21:26:32.884Z,1.34
2019-01-20T21:31:27.586Z,1.43
2019-01-20T21:36:22.187Z,1.35
2019-01-20T21:41:16.865Z,1.30
2019-01-20T21:46:11.613Z,1.39
2019-01-20T21:51:06.219Z,1.44
2019-01-20T21:56:00.836Z,1.49
2019-01-20T22:00:55.465Z,1.59
2019-01-20T22:05:50.059Z,1.57
2019-01-20T22:10:44.665Z,1.70
2019-01-20T22:15:39.304Z,1.69
2019-01-20T22:20:33.972Z,1.67
2019-01-20T22:25:28.608Z,1.75
2019-01-20T22:30:26.203Z,1.89
2019-01-20T22:35:20.937Z,1.80
2019-01-20T22:40:18.663Z,1.83
2019-01-20T22:45:17.499Z,2.01
2019-01-20T22:50:14.227Z,1.91
2019-01-20T22:55:15.271Z,1.78
2019-01-20T23:00:27.854Z,1.88
2019-01-20T23:05:22.459Z,1.82
2019-01-20T23:10:17.083Z,1.84
2019-01-20T23:15:11.897Z,1.92
2019-01-20T23:20:11.101Z,2.01
2019-01-20T23:25:06.777Z,2.07
2019-01-20T23:30:01.425Z,1.95
2019-01-20T23:34:56.030Z,1.89
2019-01-20T23:39:50.627Z,2.07
2019-01-20T23:44:45.316Z,2.05
2019-01-20T23:49:39.904Z,1.98
2019-01-20T23:54:34.517Z,1.94
2019-01-20T23:59:29.208Z,2.08
